Hit Tracker is now ESPN Home Run Tracker! Hit Tracker founder Greg Rybarczyk is now collaborating with the ESPN Stats & Information Group to continue tracking all MLB home runs, and helping baseball fans know "How Far It Really Went!™" Please credit any information on this site to ESPN Stats & Information Group. For more information and analysis on home runs, please contact founder Greg Rybarczyk. E-Mail ESPN Home Run Tracker
Main Page | Ballparks | Park Overlays | Glossary | Highlight Homers | Feedback | Bio | 3 Types of HR's | AAA Home Run Derby Last Updated: July 29, 2015, 11:00 pm PST
Welcome to the ESPN Home Run Tracker! Check out the ESPN MLB Scoreboard throughout the 2015 season! Contact us at grybar@hittrackeronline.com.
Season:
Ballpark detail for Turner Field
Ballpark # of Home Runs HR per game Avg.
True
Distance
Avg.
Speed
Off
Bat
Avg.
Std.
Dist.
Turner Field 59 1.28 401.2 103.5 398.7

Scatter Plot of Home Runs Turner Field
 Overlay Ballpark:
Without range rings   With range rings

2015 Season Home Runs for Turner Field
Click headers to sort
Date Video Path Hitter Hitter
Team
Pitcher Pitcher
Team
INN Ballpark Type/
Luck
True
Dist.
Speed
Off
Bat
Elev.
Angle
Horiz.
Angle
Apex Impact Due To: Std.
Dist.
#
Parks
Wind Temp. ^ Alt.
04/27/15 Video View Johnson, Kelly ATL Fister, Doug WSH 6 Turner Field PL 398 105.5 33.4 76.8 138 -17 -2 4 413 30
06/11/15 Video View Freeman, Freddie ATL Cashner, Andrew SD 6 Turner Field JE/L 388 98.7 33.5 102.8 114 5 -2 3 382 23
04/28/15 Video View Uggla, Dan WSH Grilli, Jason ATL 9 Turner Field ND 438 108.6 30.9 107.2 117 6 -1 4 429 30
04/29/15 Video View Span, Denard WSH Cornely, John ATL 9 Turner Field JE 383 100.2 29.4 69.4 88 0 -1 2 382 28
04/30/15 Video View Barnhart, Tucker CIN Miller, Shelby ATL 7 Turner Field PL 375 99.1 31.5 64.1 92 1 -1 2 371 29
04/30/15 Video View Frazier, Todd CIN Veal, Donnie ATL 8 Turner Field PL 403 103.0 32.5 105.2 120 -2 -1 3 402 30
05/01/15 Video View Johnson, Kelly ATL DeSclafani, Anthony CIN 5 Turner Field PL 405 106.2 27.3 68.3 86 -3 -1 2 407 30
04/10/15 Video View Wright, David NYM Stults, Eric ATL 4 Turner Field PL 428 105.1 26.3 95.7 93 0 -1 2 427 29
04/12/15 Video View Cuddyer, Michael NYM Wood, Alex ATL 1 Turner Field PL 409 102.9 30.0 101.7 107 -3 -1 2 410 30
06/06/15 Video View McCutchen, Andrew PIT Teheran, Julio ATL 4 Turner Field JE/L 412 110.8 18.1 94.3 54 5 -1 0 407 7
05/19/15 Video View Cabrera, Asdrubal TB Foltynewicz, Mike ATL 4 Turner Field ND 427 108.9 28.4 69.3 98 -2 0 2 426 30
04/28/15 Video View Lobaton, Jose WSH Teheran, Julio ATL 5 Turner Field JE 408 102.1 26.8 100.0 83 3 0 1 404 27
04/28/15 Video View Span, Denard WSH Teheran, Julio ATL 6 Turner Field PL 376 103.3 25.9 61.7 67 1 0 1 374 28
04/30/15 Video View Leake, Mike CIN Miller, Shelby ATL 7 Turner Field JE 407 103.1 24.2 97.0 77 1 0 1 406 17
04/30/15 Video View Hamilton, Billy CIN Thomas, Ian ATL 9 Turner Field PL 411 104.2 25.1 100.2 81 0 0 1 410 28
05/02/15 Video View Maybin, Cameron ATL Marquis, Jason CIN 5 Turner Field PL 383 102.7 26.9 115.0 73 1 0 1 381 30
05/02/15 Video View Byrd, Marlon CIN Stults, Eric ATL 6 Turner Field JE 405 101.0 30.0 79.8 103 0 0 2 402 26
05/02/15 Video View Frazier, Todd CIN Stults, Eric ATL 7 Turner Field PL 415 106.5 24.2 101.2 84 -3 0 1 416 30
05/03/15 Video View Gomes, Jonny ATL Cueto, Johnny CIN 3 Turner Field PL 393 104.8 26.6 116.9 70 5 0 2 387 30
04/10/15 Video View Maybin, Cameron ATL Niese, Jonathon NYM 1 Turner Field PL 424 108.0 21.2 93.7 68 0 0 0 423 24
04/10/15 Video View Mayberry Jr., John NYM Stults, Eric ATL 4 Turner Field PL 409 104.5 26.5 104.4 85 -1 0 2 409 30
04/12/15 Video View Gomes, Jonny ATL Colon, Bartolo NYM 7 Turner Field PL 380 103.0 36.1 116.8 127 0 0 5 376 30
04/14/15 Video View Pierzynski, A.J. ATL Koehler, Tom MIA 4 Turner Field PL 380 99.4 30.6 65.7 87 4 0 2 375 29
04/14/15 Video View Freeman, Freddie ATL Koehler, Tom MIA 4 Turner Field JE 398 103.3 25.9 73.7 76 1 0 1 396 30
04/15/15 Video View Hechavarria, Adeiny MIA Stults, Eric ATL 5 Turner Field JE 385 101.4 26.4 108.2 74 0 0 1 383 25
04/15/15 Video View Morse, Michael MIA Martin, Cody ATL 6 Turner Field PL 421 105.5 29.7 105.7 105 0 0 3 418 30
04/15/15 Video View Maybin, Cameron ATL Haren, Dan MIA 6 Turner Field PL 406 101.5 30.9 102.0 107 1 0 3 402 30
04/15/15 Video View Johnson, Kelly ATL Haren, Dan MIA 7 Turner Field JE 392 101.1 29.0 72.0 89 0 0 2 391 30
05/22/15 Video View Braun, Ryan MIL Stults, Eric ATL 1 Turner Field JE 413 103.8 26.2 80.3 87 -1 0 1 413 28
06/09/15 Video View Venable, Will SD Foltynewicz, Mike ATL 3 Turner Field PL 359 103.3 25.0 53.4 59 0 0 1 358 28
06/09/15 Video View Terdoslavich, Joey ATL Benoit, Joaquin SD 8 Turner Field JE 418 109.3 20.2 84.5 61 0 0 0 418 21
07/01/15 Video View Pierzynski, A.J. ATL Fister, Doug WSH 4 Turner Field PL 370 101.1 26.8 62.0 68 2 0 1 367 25
07/01/15 Video View Uribe, Juan ATL Fister, Doug WSH 4 Turner Field PL 433 105.4 25.7 92.5 90 1 0 1 431 26
07/19/15 Video View Soler, Jorge CHC Miller, Shelby ATL 3 Turner Field JE 425 108.0 21.0 90.3 65 -1 0 0 426 26
05/02/15 Video View Cozart, Zack CIN Veal, Donnie ATL 9 Turner Field JE 378 98.6 31.9 110.4 98 0 1 2 375 27
05/03/15 Video View Johnson, Kelly ATL Cueto, Johnny CIN 1 Turner Field PL 427 105.0 26.7 80.8 90 2 1 2 422 29
05/05/15 Video View Freeman, Freddie ATL Billingsley, Chad PHI 1 Turner Field PL 371 99.8 28.3 65.7 79 -2 1 1 371 27
05/05/15 Video View Johnson, Kelly ATL Billingsley, Chad PHI 4 Turner Field PL 433 106.7 29.1 79.8 113 -3 1 3 432 30
05/06/15 Video View Simmons, Andrelton ATL Williams, Jerome PHI 1 Turner Field PL 412 102.3 28.2 99.5 93 0 1 2 409 30
05/06/15 Video View Howard, Ryan PHI Foltynewicz, Mike ATL 6 Turner Field JE 407 100.8 28.8 98.1 96 1 1 2 404 20
06/05/15 Video View Marte, Starling PIT Avilan, Luis ATL 6 Turner Field JE 390 104.4 25.3 69.4 72 -1 1 1 390 29
06/06/15 Video View Johnson, Chris ATL Locke, Jeff PIT 2 Turner Field JE 414 103.5 24.1 86.6 79 0 1 1 413 18
06/17/15 Video View Napoli, Mike BOS Wood, Alex ATL 6 Turner Field PL 441 110.1 22.2 95.3 74 0 1 1 439 30
06/20/15 Video View Granderson, Curtis NYM Perez, Williams ATL 5 Turner Field JE 413 101.6 27.3 91.2 95 -2 1 2 412 18
06/20/15 Video View d'Arnaud, Travis NYM Perez, Williams ATL 6 Turner Field PL 406 101.7 28.0 100.1 93 -2 1 2 404 27
06/30/15 Video View Robinson, Clint WSH Miller, Shelby ATL 1 Turner Field PL 362 95.3 32.0 62.5 83 8 1 2 351 18
06/30/15 Video View Uribe, Juan ATL Carpenter, David WSH 9 Turner Field JE 385 109.3 21.9 116.7 54 5 1 1 379 20
07/04/15 Video View Maybin, Cameron ATL Correia, Kevin PHI 2 Turner Field JE/L 412 100.4 28.2 89.5 92 3 1 1 407 9
07/04/15 Video View Herrera, Odubel PHI Aardsma, David ATL 8 Turner Field ND 418 108.1 28.6 62.3 87 4 1 2 411 30
07/21/15 Video View Turner, Justin LAD Wood, Alex ATL 1 Turner Field JE/L 365 100.9 25.9 115.5 66 -1 1 1 365 19
04/11/15 Video View Freeman, Freddie ATL Gee, Dillon NYM 2 Turner Field JE 404 103.0 34.5 78.5 134 0 2 5 399 29
06/06/15 Video View Bethancourt, Christian ATL Worley, Vance PIT 9 Turner Field JE 339 94.3 31.3 58.1 79 -4 2 2 340 20
07/03/15 Video View Gomes, Jonny ATL Morgan, Adam PHI 2 Turner Field ND 430 107.8 31.8 109.2 120 5 2 4 420 30
07/03/15 Video View Uribe, Juan ATL Morgan, Adam PHI 7 Turner Field PL 401 103.1 35.6 104.3 138 5 2 5 390 29
07/04/15 Video View Ruf, Darin PHI Wood, Alex ATL 5 Turner Field JE 382 105.9 23.4 112.6 60 1 2 1 381 22
07/21/15 Video View Puig, Yasiel LAD Wood, Alex ATL 2 Turner Field JE 388 99.9 28.4 104.1 90 -5 2 2 389 26
06/05/15 Video View Walker, Neil PIT Perez, Williams ATL 5 Turner Field ND 401 106.8 34.2 64.1 127 -7 3 5 401 30
07/20/15 Video View Markakis, Nick ATL Beachy, Brandon LAD 1 Turner Field JE/L 412 100.2 28.6 91.6 94 3 3 2 405 3
07/20/15 Video View Gonzalez, Adrian LAD Wisler, Matt ATL 5 Turner Field PL 402 101.4 31.1 72.4 100 3 3 3 393 30


About HitTracker | Contact Us
© 2006-2015 HitTrackerOnline